createdAt,value
2017-11-15T00:02:22.638Z,26.4
2017-11-15T00:05:19.822Z,26.4
2017-11-15T00:11:13.738Z,26.5
2017-11-15T00:14:10.632Z,26.6
2017-11-15T00:17:07.704Z,26.6
2017-11-15T00:20:04.693Z,26.7
2017-11-15T00:23:01.705Z,26.8
2017-11-15T00:25:58.679Z,26.8
2017-11-15T00:28:55.714Z,26.8
2017-11-15T00:31:52.713Z,26.9
2017-11-15T00:37:46.788Z,27
2017-11-15T00:40:43.708Z,27
2017-11-15T00:43:40.741Z,27.2
2017-11-15T00:49:34.801Z,27.3
2017-11-15T00:52:31.687Z,27.4
2017-11-15T00:55:28.778Z,27.6
2017-11-15T00:58:25.670Z,27.6
2017-11-15T01:01:22.757Z,27.7
2017-11-15T01:07:16.861Z,27.9
2017-11-15T01:10:15.710Z,28
2017-11-15T01:13:10.817Z,28
2017-11-15T01:19:04.775Z,28.2
2017-11-15T01:22:01.709Z,28.3
2017-11-15T01:24:58.728Z,28.3
2017-11-15T01:30:52.750Z,28.4
2017-11-15T01:33:49.729Z,28.4
2017-11-15T01:36:46.750Z,28.4
2017-11-15T01:39:43.797Z,28.4
2017-11-15T01:42:40.833Z,28.4
2017-11-15T01:48:34.756Z,28.4
2017-11-15T01:51:31.761Z,28.4
2017-11-15T01:54:28.763Z,28.4
2017-11-15T01:57:25.701Z,28.4
2017-11-15T02:00:22.857Z,28.4
2017-11-15T02:03:19.743Z,28.4
2017-11-15T02:06:16.803Z,28.5
2017-11-15T02:12:10.793Z,28.7
2017-11-15T02:15:07.766Z,28.8
2017-11-15T02:18:04.836Z,29
2017-11-15T02:21:01.743Z,29
2017-11-15T02:23:58.789Z,29.1
2017-11-15T02:26:55.709Z,29
2017-11-15T02:32:49.810Z,29.1
2017-11-15T02:35:46.907Z,29
2017-11-15T02:38:43.857Z,29.2
2017-11-15T02:41:40.780Z,29.2
2017-11-15T02:44:37.834Z,29.2
2017-11-15T02:47:34.772Z,29.3
2017-11-15T02:50:31.801Z,29.4
2017-11-15T02:56:25.834Z,29.6
2017-11-15T02:59:22.736Z,29.7
2017-11-15T03:02:19.796Z,29.7
2017-11-15T03:05:16.823Z,29.8
2017-11-15T03:08:13.925Z,29.8
2017-11-15T03:17:04.946Z,30.1
2017-11-15T03:22:58.835Z,30.2
2017-11-15T03:25:55.850Z,30.2
2017-11-15T03:34:46.878Z,30.6
2017-11-15T03:46:34.827Z,30.2
2017-11-15T03:55:25.908Z,30.4
2017-11-15T03:58:22.938Z,30.2
2017-11-15T04:01:19.860Z,30.1
2017-11-15T04:04:21.771Z,30
2017-11-15T04:10:10.908Z,29.7
2017-11-15T04:16:04.865Z,29.7
2017-11-15T04:19:01.839Z,30
2017-11-15T04:21:58.970Z,30.1
2017-11-15T04:24:55.886Z,30
2017-11-15T04:27:52.857Z,30.1
2017-11-15T04:33:46.853Z,30.5
2017-11-15T04:36:43.851Z,30.6
2017-11-15T04:39:40.871Z,30.6
2017-11-15T04:42:37.859Z,30.7
2017-11-15T04:45:34.845Z,30.9
2017-11-15T04:48:31.842Z,31
2017-11-15T04:51:28.870Z,31
2017-11-15T04:54:25.951Z,31.2
2017-11-15T04:57:22.880Z,31
2017-11-15T05:00:19.875Z,31
2017-11-15T05:03:16.958Z,31
2017-11-15T05:06:13.865Z,30.9
2017-11-15T05:09:10.925Z,31
2017-11-15T05:12:07.850Z,31.2
2017-11-15T05:15:04.939Z,31.4
2017-11-15T05:23:55.849Z,31.8
2017-11-15T05:26:52.866Z,31.9
2017-11-15T05:29:52.103Z,32
2017-11-15T05:32:46.850Z,32
2017-11-15T05:38:40.924Z,32.1
2017-11-15T05:41:37.798Z,32.1
2017-11-15T05:44:34.994Z,32.1
2017-11-15T05:47:31.846Z,32.1
2017-11-15T05:50:28.921Z,32.2
2017-11-15T05:53:25.808Z,32.3
2017-11-15T06:02:16.938Z,32.5
2017-11-15T06:08:10.931Z,32.6
2017-11-15T06:14:04.907Z,32.6
2017-11-15T06:17:01.889Z,32.6
2017-11-15T06:22:56.007Z,32.4
2017-11-15T06:28:50.030Z,32.2
2017-11-15T06:40:38.009Z,32.5
2017-11-15T06:43:35.319Z,32.6
2017-11-15T06:46:31.952Z,32.6
2017-11-15T06:49:29.301Z,32.6
2017-11-15T06:52:25.974Z,32.6
2017-11-15T06:55:22.961Z,32.6
2017-11-15T07:10:08.031Z,31.9
2017-11-15T07:13:09.963Z,31.8
2017-11-15T07:16:01.949Z,31.6
2017-11-15T07:18:58.962Z,31.5
2017-11-15T07:21:56.041Z,31.4
2017-11-15T07:24:52.949Z,31.4
2017-11-15T07:27:50.132Z,31.3
2017-11-15T07:33:45.987Z,31.1
2017-11-15T07:36:41.011Z,31.1
2017-11-15T07:39:37.957Z,31
2017-11-15T07:45:32.103Z,30.9
2017-11-15T07:51:25.992Z,30.8
2017-11-15T07:54:22.961Z,30.8
2017-11-15T08:00:16.974Z,30.8
2017-11-15T08:03:13.916Z,30.7
2017-11-15T08:06:10.941Z,30.7
2017-11-15T08:12:05.023Z,30.6
2017-11-15T08:17:59.059Z,30.6
2017-11-15T08:20:55.891Z,30.6
2017-11-15T08:26:50.092Z,30.7
2017-11-15T08:29:47.078Z,30.7
2017-11-15T08:32:44.064Z,30.8
2017-11-15T08:35:41.005Z,30.8
2017-11-15T08:38:38.007Z,30.8
2017-11-15T08:44:32.027Z,30.9
2017-11-15T08:47:28.945Z,30.9
2017-11-15T08:53:23.191Z,31.2
2017-11-15T08:56:19.973Z,31.2
2017-11-15T08:59:16.990Z,31.2
2017-11-15T09:08:08.029Z,30.9
2017-11-15T09:14:02.111Z,30.8
2017-11-15T09:19:56.100Z,30.7
2017-11-15T09:22:52.997Z,30.6
2017-11-15T09:25:50.073Z,30.6
2017-11-15T09:28:47.034Z,30.5
2017-11-15T09:40:35.099Z,30.3
2017-11-15T09:43:32.541Z,30.3
2017-11-15T09:46:29.128Z,30.2
2017-11-15T09:49:25.989Z,30.2
2017-11-15T09:52:23.053Z,30.2
2017-11-15T09:55:20.009Z,30.1
2017-11-15T09:58:17.199Z,30
2017-11-15T10:01:14.132Z,29.9
2017-11-15T10:07:08.132Z,29.9
2017-11-15T10:13:02.078Z,29.8
2017-11-15T10:15:58.987Z,29.7
2017-11-15T10:18:56.128Z,29.6
2017-11-15T10:21:53.032Z,29.5
2017-11-15T10:24:50.097Z,29.4
2017-11-15T10:30:44.060Z,29.4
2017-11-15T10:33:40.993Z,29.3
2017-11-15T10:39:35.073Z,29.3
2017-11-15T10:42:38.038Z,29.2
2017-11-15T10:45:29.195Z,29.2
2017-11-15T10:48:26.099Z,29.2
2017-11-15T10:51:23.158Z,29.2
2017-11-15T10:57:17.187Z,29.1
2017-11-15T11:06:08.115Z,29
2017-11-15T11:09:05.028Z,29
2017-11-15T11:14:59.089Z,29
2017-11-15T11:17:56.051Z,29.1
2017-11-15T11:23:50.162Z,29
2017-11-15T11:26:48.047Z,29
2017-11-15T11:29:44.143Z,28.9
2017-11-15T11:32:41.000Z,28.8
2017-11-15T11:41:32.138Z,28.8
2017-11-15T11:47:26.197Z,28.7
2017-11-15T11:56:17.150Z,28.6
2017-11-15T12:02:11.092Z,28.5
2017-11-15T12:05:09.088Z,28.4
2017-11-15T12:08:05.160Z,28.4
2017-11-15T12:13:59.185Z,28.4
2017-11-15T12:16:56.141Z,28.4
2017-11-15T12:19:53.263Z,28.4
2017-11-15T12:22:55.131Z,28.3
2017-11-15T12:25:49.095Z,28.2
2017-11-15T12:28:45.129Z,28.2
2017-11-15T12:31:41.182Z,28.1
2017-11-15T12:34:38.051Z,28.1
2017-11-15T12:37:35.243Z,28.1
2017-11-15T12:40:32.030Z,28.1
2017-11-15T12:43:29.236Z,28
2017-11-15T12:46:31.140Z,28
2017-11-15T12:49:23.423Z,27.9
2017-11-15T12:52:20.103Z,27.9
2017-11-15T12:58:14.400Z,27.9
2017-11-15T13:01:11.208Z,27.8
2017-11-15T13:04:09.279Z,27.8
2017-11-15T13:07:05.094Z,27.8
2017-11-15T13:10:02.237Z,27.8
2017-11-15T13:13:02.211Z,27.8
2017-11-15T13:15:57.299Z,27.7
2017-11-15T13:18:53.112Z,27.7
2017-11-15T13:21:50.234Z,27.7
2017-11-15T13:24:47.166Z,27.7
2017-11-15T13:27:44.172Z,27.6
2017-11-15T13:30:42.149Z,27.6
2017-11-15T13:33:38.243Z,27.6
2017-11-15T13:36:35.090Z,27.6
2017-11-15T13:39:32.202Z,27.6
2017-11-15T13:42:29.159Z,27.6
2017-11-15T13:45:26.230Z,27.6
2017-11-15T13:48:23.096Z,27.6
2017-11-15T13:54:17.266Z,27.5
2017-11-15T13:57:14.160Z,27.5
2017-11-15T14:03:10.255Z,27.4
2017-11-15T14:06:18.102Z,27.4
2017-11-15T14:09:02.265Z,27.4
2017-11-15T14:12:00.471Z,27.4
2017-11-15T14:14:56.327Z,27.4
2017-11-15T14:17:53.245Z,27.3
2017-11-15T14:23:47.278Z,27.2
2017-11-15T14:29:42.340Z,27.2
2017-11-15T14:32:38.201Z,27.2
2017-11-15T14:35:40.219Z,27.2
2017-11-15T14:38:32.318Z,27.2
2017-11-15T14:41:29.289Z,27.2
2017-11-15T14:44:26.141Z,27.2
2017-11-15T14:47:23.263Z,27.1
2017-11-15T14:50:20.232Z,27.1
2017-11-15T14:53:17.285Z,27.1
2017-11-15T15:02:09.271Z,27.1
2017-11-15T15:11:00.320Z,27
2017-11-15T15:13:56.135Z,27
2017-11-15T15:16:53.180Z,27.1
2017-11-15T15:19:50.132Z,27
2017-11-15T15:28:41.378Z,27
2017-11-15T15:31:38.218Z,27
2017-11-15T15:37:32.242Z,27
2017-11-15T15:40:29.220Z,27
2017-11-15T15:43:30.333Z,27
2017-11-15T15:46:24.252Z,27
2017-11-15T15:49:21.314Z,27
2017-11-15T15:52:18.290Z,27
2017-11-15T15:55:16.359Z,27
2017-11-15T15:58:12.229Z,27
2017-11-15T16:01:09.312Z,26.9
2017-11-15T16:04:06.321Z,26.9
2017-11-15T16:10:00.274Z,26.9
2017-11-15T16:12:57.116Z,26.8
2017-11-15T16:15:55.527Z,26.8
2017-11-15T16:21:48.328Z,26.8
2017-11-15T16:24:45.187Z,26.8
2017-11-15T16:27:42.348Z,26.8
2017-11-15T16:30:39.274Z,26.9
2017-11-15T16:33:36.354Z,26.9
2017-11-15T16:36:33.574Z,26.9
2017-11-15T16:39:30.298Z,26.9
2017-11-15T16:48:21.372Z,26.9
2017-11-15T16:51:38.863Z,26.8
2017-11-15T17:00:09.224Z,26.9
2017-11-15T17:06:03.259Z,26.8
2017-11-15T17:09:00.190Z,26.8
2017-11-15T17:11:57.300Z,26.8
2017-11-15T17:14:54.198Z,26.8
2017-11-15T17:17:51.312Z,26.8
2017-11-15T17:20:48.266Z,26.8
2017-11-15T17:23:45.323Z,26.8
2017-11-15T17:29:39.440Z,26.8
2017-11-15T17:35:34.277Z,26.8
2017-11-15T17:41:27.342Z,26.8
2017-11-15T17:44:24.525Z,26.8
2017-11-15T17:47:21.222Z,26.7
2017-11-15T17:50:18.235Z,26.7
2017-11-15T17:53:15.253Z,26.7
2017-11-15T17:56:12.161Z,26.7
2017-11-15T17:59:09.264Z,26.7
2017-11-15T18:08:00.297Z,26.7
2017-11-15T18:10:57.212Z,26.7
2017-11-15T18:13:54.371Z,26.7
2017-11-15T18:19:48.274Z,26.8
2017-11-15T18:28:39.268Z,26.7
2017-11-15T18:31:36.192Z,26.8
2017-11-15T18:37:30.328Z,26.8
2017-11-15T18:40:27.252Z,26.8
2017-11-15T18:43:24.355Z,26.8
2017-11-15T18:46:21.269Z,26.8
2017-11-15T18:49:18.344Z,26.8
2017-11-15T18:52:15.245Z,26.8
2017-11-15T18:55:12.333Z,26.8
2017-11-15T18:58:09.314Z,26.8
2017-11-15T19:01:06.256Z,26.8
2017-11-15T19:09:57.317Z,26.8
2017-11-15T19:12:55.221Z,26.8
2017-11-15T19:15:54.276Z,26.8
2017-11-15T19:21:45.355Z,26.8
2017-11-15T19:27:39.352Z,26.7
2017-11-15T19:30:36.260Z,26.7
2017-11-15T19:36:32.370Z,26.7
2017-11-15T19:39:27.289Z,26.6
2017-11-15T19:45:22.253Z,26.6
2017-11-15T19:48:18.249Z,26.6
2017-11-15T19:57:09.400Z,26.6
2017-11-15T20:00:06.260Z,26.6
2017-11-15T20:03:03.349Z,26.6
2017-11-15T20:06:00.265Z,26.6
2017-11-15T20:08:57.411Z,26.6
2017-11-15T20:14:52.283Z,26.6
2017-11-15T20:20:45.366Z,26.6
2017-11-15T20:26:39.475Z,26.6
2017-11-15T20:32:33.327Z,26.6
2017-11-15T20:35:30.270Z,26.6
2017-11-15T20:38:27.350Z,26.6
2017-11-15T20:41:24.308Z,26.6
2017-11-15T20:44:21.384Z,26.6
2017-11-15T20:50:15.401Z,26.6
2017-11-15T20:53:12.333Z,26.6
2017-11-15T20:56:09.346Z,26.5
2017-11-15T20:59:06.328Z,26.5
2017-11-15T21:02:03.410Z,26.5
2017-11-15T21:05:00.249Z,26.5
2017-11-15T21:07:57.450Z,26.5
2017-11-15T21:10:54.299Z,26.6
2017-11-15T21:13:51.437Z,26.6
2017-11-15T21:19:45.372Z,26.6
2017-11-15T21:22:42.277Z,26.6
2017-11-15T21:25:39.735Z,26.6
2017-11-15T21:31:33.373Z,26.6
2017-11-15T21:34:31.367Z,26.6
2017-11-15T21:40:24.448Z,26.7
2017-11-15T21:43:21.292Z,26.7
2017-11-15T21:46:18.465Z,26.7
2017-11-15T21:49:15.354Z,26.8
2017-11-15T21:52:12.436Z,26.8
2017-11-15T21:55:09.359Z,26.8
2017-11-15T22:01:03.373Z,26.9
2017-11-15T22:04:00.355Z,26.9
2017-11-15T22:06:57.425Z,26.9
2017-11-15T22:09:54.362Z,26.9
2017-11-15T22:12:51.405Z,27
2017-11-15T22:18:45.425Z,27
2017-11-15T22:21:42.303Z,27
2017-11-15T22:24:39.420Z,27
2017-11-15T22:27:36.569Z,27
2017-11-15T22:30:33.407Z,27
2017-11-15T22:36:27.382Z,27
2017-11-15T22:42:35.887Z,27
2017-11-15T22:45:18.379Z,27
2017-11-15T22:48:15.396Z,27
2017-11-15T22:54:09.437Z,27
2017-11-15T22:57:06.384Z,27
2017-11-15T23:00:03.565Z,26.9
2017-11-15T23:03:03.734Z,26.9
2017-11-15T23:05:57.445Z,27
2017-11-15T23:08:54.392Z,26.9
2017-11-15T23:11:51.415Z,27
2017-11-15T23:14:51.366Z,27
2017-11-15T23:23:39.427Z,27
2017-11-15T23:35:27.522Z,27
2017-11-15T23:38:24.454Z,27
2017-11-15T23:41:21.501Z,27
2017-11-15T23:44:18.394Z,27
2017-11-15T23:47:15.525Z,27.1
2017-11-15T23:50:13.338Z,27.1
2017-11-15T23:53:09.555Z,27.1
